sensor_id;sensor_type;location;lat;lon;timestamp;pressure;altitude;pressure_sealevel;temperature;humidity
77321;BME280;66382;52.252;8.780;2024-03-02T00:00:54;99388.91;;;8.04;62.59
77321;BME280;66382;52.252;8.780;2024-03-02T00:03:19;99383.13;;;8.00;63.09
77321;BME280;66382;52.252;8.780;2024-03-02T00:05:48;99385.63;;;8.02;62.47
77321;BME280;66382;52.252;8.780;2024-03-02T00:08:23;99384.41;;;8.04;62.35
77321;BME280;66382;52.252;8.780;2024-03-02T00:10:48;99377.81;;;8.00;63.03
77321;BME280;66382;52.252;8.780;2024-03-02T00:13:14;99385.00;;;8.00;62.48
77321;BME280;66382;52.252;8.780;2024-03-02T00:15:46;99383.94;;;8.01;63.17
77321;BME280;66382;52.252;8.780;2024-03-02T00:18:15;99383.94;;;8.01;62.92
77321;BME280;66382;52.252;8.780;2024-03-02T00:20:42;99389.88;;;7.96;63.90
77321;BME280;66382;52.252;8.780;2024-03-02T00:23:09;99389.28;;;7.94;63.36
77321;BME280;66382;52.252;8.780;2024-03-02T00:25:38;99374.06;;;7.88;63.54
77321;BME280;66382;52.252;8.780;2024-03-02T00:28:04;99386.00;;;7.92;63.03
77321;BME280;66382;52.252;8.780;2024-03-02T00:33:31;99386.63;;;7.94;62.55
77321;BME280;66382;52.252;8.780;2024-03-02T00:35:57;99381.06;;;7.95;63.05
77321;BME280;66382;52.252;8.780;2024-03-02T00:38:23;99378.59;;;7.94;63.37
77321;BME280;66382;52.252;8.780;2024-03-02T00:40:48;99375.72;;;7.89;63.28
77321;BME280;66382;52.252;8.780;2024-03-02T00:46:08;99370.75;;;7.79;63.28
77321;BME280;66382;52.252;8.780;2024-03-02T00:48:34;99368.25;;;7.78;63.57
77321;BME280;66382;52.252;8.780;2024-03-02T00:51:00;99361.88;;;7.72;62.70
77321;BME280;66382;52.252;8.780;2024-03-02T00:53:26;99351.75;;;7.61;63.32
77321;BME280;66382;52.252;8.780;2024-03-02T00:55:52;99359.19;;;7.65;63.54
77321;BME280;66382;52.252;8.780;2024-03-02T00:58:17;99363.47;;;7.66;63.00
77321;BME280;66382;52.252;8.780;2024-03-02T01:00:43;99366.34;;;7.65;64.00
77321;BME280;66382;52.252;8.780;2024-03-02T01:03:08;99346.19;;;7.56;62.99
77321;BME280;66382;52.252;8.780;2024-03-02T01:05:35;99361.66;;;7.67;64.01
77321;BME280;66382;52.252;8.780;2024-03-02T01:08:00;99346.03;;;7.64;62.91
77321;BME280;66382;52.252;8.780;2024-03-02T01:10:26;99348.28;;;7.60;63.24
77321;BME280;66382;52.252;8.780;2024-03-02T01:12:51;99342.91;;;7.53;63.94
77321;BME280;66382;52.252;8.780;2024-03-02T01:15:17;99344.56;;;7.54;64.02
77321;BME280;66382;52.252;8.780;2024-03-02T01:17:42;99339.81;;;7.50;63.19
77321;BME280;66382;52.252;8.780;2024-03-02T01:20:09;99337.16;;;7.50;63.70
77321;BME280;66382;52.252;8.780;2024-03-02T01:22:36;99343.47;;;7.49;63.10
77321;BME280;66382;52.252;8.780;2024-03-02T01:25:01;99348.41;;;7.45;63.93
77321;BME280;66382;52.252;8.780;2024-03-02T01:27:26;99334.63;;;7.42;64.00
77321;BME280;66382;52.252;8.780;2024-03-02T01:29:52;99341.16;;;7.39;63.35
77321;BME280;66382;52.252;8.780;2024-03-02T01:32:17;99307.44;;;7.18;63.68
77321;BME280;66382;52.252;8.780;2024-03-02T01:34:43;99336.06;;;7.38;63.79
77321;BME280;66382;52.252;8.780;2024-03-02T01:37:08;99333.34;;;7.31;64.43
77321;BME280;66382;52.252;8.780;2024-03-02T01:39:35;99330.28;;;7.34;64.02
77321;BME280;66382;52.252;8.780;2024-03-02T01:42:01;99331.50;;;7.31;64.34
77321;BME280;66382;52.252;8.780;2024-03-02T01:44:26;99325.34;;;7.31;63.62
77321;BME280;66382;52.252;8.780;2024-03-02T01:46:52;99328.81;;;7.31;64.68
77321;BME280;66382;52.252;8.780;2024-03-02T01:49:17;99330.03;;;7.29;64.19
77321;BME280;66382;52.252;8.780;2024-03-02T01:51:42;99331.47;;;7.25;64.71
77321;BME280;66382;52.252;8.780;2024-03-02T01:54:08;99332.47;;;7.24;65.19
77321;BME280;66382;52.252;8.780;2024-03-02T01:56:35;99329.00;;;7.23;63.74
77321;BME280;66382;52.252;8.780;2024-03-02T01:59:01;99332.47;;;7.24;64.36
77321;BME280;66382;52.252;8.780;2024-03-02T02:01:26;99331.41;;;7.18;64.86
77321;BME280;66382;52.252;8.780;2024-03-02T02:03:52;99334.47;;;7.15;64.19
77321;BME280;66382;52.252;8.780;2024-03-02T02:06:17;99321.53;;;7.12;64.20
77321;BME280;66382;52.252;8.780;2024-03-02T02:08:43;99327.47;;;7.14;63.85
77321;BME280;66382;52.252;8.780;2024-03-02T02:11:08;99316.63;;;7.16;63.74
77321;BME280;66382;52.252;8.780;2024-03-02T02:13:35;99320.94;;;7.17;64.50
77321;BME280;66382;52.252;8.780;2024-03-02T02:16:05;99316.81;;;7.14;64.28
77321;BME280;66382;52.252;8.780;2024-03-02T02:18:30;99315.00;;;7.15;64.98
77321;BME280;66382;52.252;8.780;2024-03-02T02:20:55;99310.25;;;7.10;64.90
77321;BME280;66382;52.252;8.780;2024-03-02T02:23:22;99303.91;;;7.11;64.97
77321;BME280;66382;52.252;8.780;2024-03-02T02:25:48;99298.56;;;7.11;64.14
77321;BME280;66382;52.252;8.780;2024-03-02T02:28:13;99298.16;;;7.14;64.13
77321;BME280;66382;52.252;8.780;2024-03-02T02:30:39;99299.19;;;7.13;63.92
77321;BME280;66382;52.252;8.780;2024-03-02T02:33:04;99291.84;;;7.15;64.19
77321;BME280;66382;52.252;8.780;2024-03-02T02:35:30;99274.94;;;7.01;64.38
77321;BME280;66382;52.252;8.780;2024-03-02T02:37:56;99301.47;;;7.16;64.70
77321;BME280;66382;52.252;8.780;2024-03-02T02:40:24;99295.31;;;7.16;64.78
77321;BME280;66382;52.252;8.780;2024-03-02T02:42:49;99293.69;;;7.15;64.19
77321;BME280;66382;52.252;8.780;2024-03-02T02:45:15;99298.16;;;7.14;64.53
77321;BME280;66382;52.252;8.780;2024-03-02T02:47:41;99290.56;;;7.11;65.24
77321;BME280;66382;52.252;8.780;2024-03-02T02:50:07;99300.41;;;7.10;65.38
77321;BME280;66382;52.252;8.780;2024-03-02T02:52:34;99289.94;;;7.09;65.23
77321;BME280;66382;52.252;8.780;2024-03-02T02:54:59;99263.63;;;6.93;64.77
77321;BME280;66382;52.252;8.780;2024-03-02T02:57:26;99281.94;;;7.09;65.75
77321;BME280;66382;52.252;8.780;2024-03-02T02:59:52;99276.63;;;7.09;65.83
77321;BME280;66382;52.252;8.780;2024-03-02T03:02:17;99270.28;;;7.10;64.77
77321;BME280;66382;52.252;8.780;2024-03-02T03:04:42;99267.00;;;7.08;65.12
77321;BME280;66382;52.252;8.780;2024-03-02T03:07:08;99257.16;;;7.08;64.30
77321;BME280;66382;52.252;8.780;2024-03-02T03:09:37;99257.97;;;7.09;64.47
77321;BME280;66382;52.252;8.780;2024-03-02T03:12:02;99261.44;;;7.09;64.38
77321;BME280;66382;52.252;8.780;2024-03-02T03:14:29;99256.97;;;7.10;64.00
77321;BME280;66382;52.252;8.780;2024-03-02T03:16:55;99259.63;;;7.10;64.83
77321;BME280;66382;52.252;8.780;2024-03-02T03:19:20;99231.59;;;6.86;65.50
77321;BME280;66382;52.252;8.780;2024-03-02T03:21:46;99262.41;;;6.95;64.71
77321;BME280;66382;52.252;8.780;2024-03-02T03:24:11;99264.03;;;6.96;64.94
77321;BME280;66382;52.252;8.780;2024-03-02T03:26:37;99245.50;;;6.81;64.37
77321;BME280;66382;52.252;8.780;2024-03-02T03:29:02;99252.50;;;6.89;65.81
77321;BME280;66382;52.252;8.780;2024-03-02T03:31:29;99252.28;;;6.84;65.19
77321;BME280;66382;52.252;8.780;2024-03-02T03:33:54;99252.84;;;6.79;64.75
77321;BME280;66382;52.252;8.780;2024-03-02T03:36:20;99253.66;;;6.73;66.23
77321;BME280;66382;52.252;8.780;2024-03-02T03:38:45;99253.06;;;6.78;65.29
77321;BME280;66382;52.252;8.780;2024-03-02T03:41:11;99243.41;;;6.77;65.19
77321;BME280;66382;52.252;8.780;2024-03-02T03:43:36;99250.16;;;6.73;65.62
77321;BME280;66382;52.252;8.780;2024-03-02T03:46:02;99247.69;;;6.71;65.34
77321;BME280;66382;52.252;8.780;2024-03-02T03:48:28;99248.31;;;6.73;65.37
77321;BME280;66382;52.252;8.780;2024-03-02T03:50:54;99244.63;;;6.74;65.87
77321;BME280;66382;52.252;8.780;2024-03-02T03:53:19;99243.81;;;6.74;65.92
77321;BME280;66382;52.252;8.780;2024-03-02T03:55:45;99243.81;;;6.74;65.67
77321;BME280;66382;52.252;8.780;2024-03-02T03:58:10;99241.34;;;6.72;65.30
77321;BME280;66382;52.252;8.780;2024-03-02T04:00:36;99219.56;;;6.62;66.75
77321;BME280;66382;52.252;8.780;2024-03-02T04:03:01;99229.97;;;6.57;65.91
77321;BME280;66382;52.252;8.780;2024-03-02T04:05:28;99247.88;;;6.70;65.81
77321;BME280;66382;52.252;8.780;2024-03-02T04:07:53;99258.53;;;6.70;66.13
77321;BME280;66382;52.252;8.780;2024-03-02T04:10:19;99264.69;;;6.70;66.05
77321;BME280;66382;52.252;8.780;2024-03-02T04:12:44;99267.38;;;6.70;65.81
77321;BME280;66382;52.252;8.780;2024-03-02T04:15:10;99259.97;;;6.72;66.36
77321;BME280;66382;52.252;8.780;2024-03-02T04:17:35;99263.50;;;6.73;66.48
77321;BME280;66382;52.252;8.780;2024-03-02T04:20:01;99269.00;;;6.71;65.86
77321;BME280;66382;52.252;8.780;2024-03-02T04:22:28;99263.84;;;6.70;66.97
77321;BME280;66382;52.252;8.780;2024-03-02T04:24:53;99263.84;;;6.70;65.88
77321;BME280;66382;52.252;8.780;2024-03-02T04:27:19;99269.19;;;6.70;66.36
77321;BME280;66382;52.252;8.780;2024-03-02T04:29:44;99258.09;;;6.66;65.71
77321;BME280;66382;52.252;8.780;2024-03-02T04:32:09;99260.75;;;6.66;66.11
77321;BME280;66382;52.252;8.780;2024-03-02T04:34:35;99265.06;;;6.67;66.41
77321;BME280;66382;52.252;8.780;2024-03-02T04:37:00;99269.56;;;6.66;66.07
77321;BME280;66382;52.252;8.780;2024-03-02T04:39:27;99277.38;;;6.68;67.03
77321;BME280;66382;52.252;8.780;2024-03-02T04:41:53;99268.34;;;6.69;66.08
77321;BME280;66382;52.252;8.780;2024-03-02T04:44:18;99269.19;;;6.70;67.06
77321;BME280;66382;52.252;8.780;2024-03-02T04:46:43;99271.22;;;6.67;66.11
77321;BME280;66382;52.252;8.780;2024-03-02T04:49:09;99276.34;;;6.69;65.89
77321;BME280;66382;52.252;8.780;2024-03-02T04:51:34;99275.72;;;6.67;66.72
77321;BME280;66382;52.252;8.780;2024-03-02T04:54:00;99239.50;;;6.44;66.54
77321;BME280;66382;52.252;8.780;2024-03-02T04:56:26;99273.63;;;6.62;68.13
77321;BME280;66382;52.252;8.780;2024-03-02T04:58:52;99266.66;;;6.61;66.62
77321;BME280;66382;52.252;8.780;2024-03-02T05:01:17;99270.97;;;6.62;66.26
77321;BME280;66382;52.252;8.780;2024-03-02T05:03:43;99253.28;;;6.55;66.76
77321;BME280;66382;52.252;8.780;2024-03-02T05:06:08;99274.66;;;6.61;67.10
77321;BME280;66382;52.252;8.780;2024-03-02T05:08:34;99269.34;;;6.61;66.68
77321;BME280;66382;52.252;8.780;2024-03-02T05:10:59;99279.81;;;6.63;66.26
77321;BME280;66382;52.252;8.780;2024-03-02T05:13:26;99285.56;;;6.66;66.35
77321;BME280;66382;52.252;8.780;2024-03-02T05:15:51;99280.22;;;6.66;67.06
77321;BME280;66382;52.252;8.780;2024-03-02T05:18:17;99294.56;;;6.65;66.38
77321;BME280;66382;52.252;8.780;2024-03-02T05:20:42;99294.34;;;6.67;66.52
77321;BME280;66382;52.252;8.780;2024-03-02T05:23:08;99298.69;;;6.68;66.45
77321;BME280;66382;52.252;8.780;2024-03-02T05:25:33;99276.25;;;6.56;66.78
77321;BME280;66382;52.252;8.780;2024-03-02T05:27:58;99299.69;;;6.67;66.27
77321;BME280;66382;52.252;8.780;2024-03-02T05:30:25;99295.56;;;6.64;66.67
77321;BME280;66382;52.252;8.780;2024-03-02T05:32:51;99294.19;;;6.68;66.61
77321;BME280;66382;52.252;8.780;2024-03-02T05:35:16;99306.28;;;6.71;65.84
77321;BME280;66382;52.252;8.780;2024-03-02T05:37:41;99299.69;;;6.67;66.48
77321;BME280;66382;52.252;8.780;2024-03-02T05:40:08;99300.06;;;6.64;65.68
77321;BME280;66382;52.252;8.780;2024-03-02T05:42:34;99303.78;;;6.63;66.18
77321;BME280;66382;52.252;8.780;2024-03-02T05:44:59;99310.09;;;6.62;65.79
77321;BME280;66382;52.252;8.780;2024-03-02T05:47:26;99312.31;;;6.58;65.68
77321;BME280;66382;52.252;8.780;2024-03-02T05:49:51;99311.31;;;6.59;65.78
77321;BME280;66382;52.252;8.780;2024-03-02T05:52:17;99312.31;;;6.58;66.15
77321;BME280;66382;52.252;8.780;2024-03-02T05:54:42;99305.34;;;6.57;65.71
77321;BME280;66382;52.252;8.780;2024-03-02T05:57:07;99304.53;;;6.57;65.37
77321;BME280;66382;52.252;8.780;2024-03-02T05:59:33;99313.72;;;6.54;65.54
77321;BME280;66382;52.252;8.780;2024-03-02T06:01:58;99313.06;;;6.52;65.40
77321;BME280;66382;52.252;8.780;2024-03-02T06:04:25;99315.09;;;6.50;66.45
77321;BME280;66382;52.252;8.780;2024-03-02T06:06:51;99312.44;;;6.50;65.72
77321;BME280;66382;52.252;8.780;2024-03-02T06:09:16;99315.09;;;6.50;66.06
77321;BME280;66382;52.252;8.780;2024-03-02T06:11:41;99313.91;;;6.53;66.35
77321;BME280;66382;52.252;8.780;2024-03-02T06:14:08;99311.22;;;6.53;66.29
77321;BME280;66382;52.252;8.780;2024-03-02T06:16:34;99324.53;;;6.53;65.92
77321;BME280;66382;52.252;8.780;2024-03-02T06:19:01;99302.81;;;6.49;66.16
77321;BME280;66382;52.252;8.780;2024-03-02T06:21:28;99322.34;;;6.56;66.40
77321;BME280;66382;52.252;8.780;2024-03-02T06:23:53;99326.63;;;6.57;66.15
77321;BME280;66382;52.252;8.780;2024-03-02T06:26:19;99328.09;;;6.60;66.19
77321;BME280;66382;52.252;8.780;2024-03-02T06:28:45;99322.72;;;6.53;66.10
77321;BME280;66382;52.252;8.780;2024-03-02T06:31:10;99333.88;;;6.63;66.45
77321;BME280;66382;52.252;8.780;2024-03-02T06:33:36;99333.88;;;6.63;65.96
77321;BME280;66382;52.252;8.780;2024-03-02T06:36:02;99336.78;;;6.68;66.21
77321;BME280;66382;52.252;8.780;2024-03-02T06:38:29;99335.75;;;6.70;65.80
77321;BME280;66382;52.252;8.780;2024-03-02T06:40:54;99337.22;;;6.72;66.83
77321;BME280;66382;52.252;8.780;2024-03-02T06:43:20;99346.66;;;6.75;66.53
77321;BME280;66382;52.252;8.780;2024-03-02T06:45:45;99350.41;;;6.80;66.77
77321;BME280;66382;52.252;8.780;2024-03-02T06:48:11;99344.31;;;6.86;66.96
77321;BME280;66382;52.252;8.780;2024-03-02T06:50:36;99351.31;;;6.87;66.92
77321;BME280;66382;52.252;8.780;2024-03-02T06:53:02;99345.56;;;6.91;66.09
77321;BME280;66382;52.252;8.780;2024-03-02T06:55:29;99351.31;;;6.94;66.32
77321;BME280;66382;52.252;8.780;2024-03-02T06:57:54;99357.94;;;6.98;66.90
77321;BME280;66382;52.252;8.780;2024-03-02T07:00:19;99357.53;;;7.01;66.02
77321;BME280;66382;52.252;8.780;2024-03-02T07:02:45;99345.28;;;7.07;66.89
77321;BME280;66382;52.252;8.780;2024-03-02T07:05:10;99347.00;;;7.21;67.68
77321;BME280;66382;52.252;8.780;2024-03-02T07:07:36;99345.72;;;7.45;67.94
77321;BME280;66382;52.252;8.780;2024-03-02T07:10:01;99355.09;;;7.69;67.41
77321;BME280;66382;52.252;8.780;2024-03-02T07:12:28;99347.31;;;7.81;66.75
77321;BME280;66382;52.252;8.780;2024-03-02T07:14:54;99355.19;;;7.89;66.37
77321;BME280;66382;52.252;8.780;2024-03-02T07:17:19;99347.81;;;7.91;66.44
77321;BME280;66382;52.252;8.780;2024-03-02T07:19:44;99346.16;;;7.90;66.22
77321;BME280;66382;52.252;8.780;2024-03-02T07:22:10;99345.75;;;7.93;66.11
77321;BME280;66382;52.252;8.780;2024-03-02T07:24:39;99343.88;;;7.87;65.73
77321;BME280;66382;52.252;8.780;2024-03-02T07:27:05;99350.88;;;7.95;66.75
77321;BME280;66382;52.252;8.780;2024-03-02T07:29:32;99350.28;;;8.00;66.27
77321;BME280;66382;52.252;8.780;2024-03-02T07:31:57;99353.38;;;8.03;65.62
77321;BME280;66382;52.252;8.780;2024-03-02T07:34:23;99362.63;;;8.07;66.05
77321;BME280;66382;52.252;8.780;2024-03-02T07:36:48;99372.50;;;8.07;65.47
77321;BME280;66382;52.252;8.780;2024-03-02T07:39:14;99342.03;;;7.88;66.18
77321;BME280;66382;52.252;8.780;2024-03-02T07:41:39;99373.94;;;8.09;65.33
77321;BME280;66382;52.252;8.780;2024-03-02T07:44:05;99377.63;;;8.08;66.26
77321;BME280;66382;52.252;8.780;2024-03-02T07:46:31;99383.81;;;8.09;65.56
77321;BME280;66382;52.252;8.780;2024-03-02T07:48:57;99382.34;;;8.13;65.91
77321;BME280;66382;52.252;8.780;2024-03-02T07:51:22;99386.28;;;8.17;65.35
77321;BME280;66382;52.252;8.780;2024-03-02T07:53:48;99380.13;;;8.23;65.53
77321;BME280;66382;52.252;8.780;2024-03-02T07:56:13;99385.31;;;8.31;66.16
77321;BME280;66382;52.252;8.780;2024-03-02T07:58:39;99392.13;;;8.40;65.84
77321;BME280;66382;52.252;8.780;2024-03-02T08:01:04;99391.72;;;8.50;65.62
77321;BME280;66382;52.252;8.780;2024-03-02T08:03:31;99367.69;;;8.50;66.00
77321;BME280;66382;52.252;8.780;2024-03-02T08:05:57;99391.81;;;8.90;66.19
77321;BME280;66382;52.252;8.780;2024-03-02T08:08:22;99401.06;;;9.21;66.88
77321;BME280;66382;52.252;8.780;2024-03-02T08:10:48;99389.47;;;9.60;66.49
77321;BME280;66382;52.252;8.780;2024-03-02T08:13:13;99396.31;;;10.15;65.99
77321;BME280;66382;52.252;8.780;2024-03-02T08:15:39;99368.53;;;10.47;65.59
77321;BME280;66382;52.252;8.780;2024-03-02T08:18:04;99394.91;;;11.07;64.56
77321;BME280;66382;52.252;8.780;2024-03-02T08:20:31;99396.78;;;11.32;62.12
77321;BME280;66382;52.252;8.780;2024-03-02T08:22:57;99396.06;;;11.61;64.53
77321;BME280;66382;52.252;8.780;2024-03-02T08:25:22;99393.75;;;11.90;62.86
77321;BME280;66382;52.252;8.780;2024-03-02T08:27:48;99387.31;;;12.10;64.24
77321;BME280;66382;52.252;8.780;2024-03-02T08:30:14;99393.09;;;12.25;63.76
77321;BME280;66382;52.252;8.780;2024-03-02T08:32:39;99368.84;;;12.32;63.23
77321;BME280;66382;52.252;8.780;2024-03-02T08:35:06;99393.44;;;12.47;60.68
77321;BME280;66382;52.252;8.780;2024-03-02T08:37:33;99397.41;;;12.26;61.09
77321;BME280;66382;52.252;8.780;2024-03-02T08:39:59;99397.75;;;12.18;62.09
77321;BME280;66382;52.252;8.780;2024-03-02T08:42:24;99401.56;;;12.40;62.53
77321;BME280;66382;52.252;8.780;2024-03-02T08:44:50;99385.72;;;12.51;61.16
77321;BME280;66382;52.252;8.780;2024-03-02T08:47:15;99400.47;;;12.60;59.86
77321;BME280;66382;52.252;8.780;2024-03-02T08:49:41;99395.47;;;12.63;60.71
77321;BME280;66382;52.252;8.780;2024-03-02T08:52:06;99409.88;;;12.81;61.60
77321;BME280;66382;52.252;8.780;2024-03-02T08:54:33;99402.09;;;13.03;62.18
77321;BME280;66382;52.252;8.780;2024-03-02T08:56:59;99402.63;;;13.35;62.59
77321;BME280;66382;52.252;8.780;2024-03-02T08:59:25;99402.75;;;13.75;61.09
77321;BME280;66382;52.252;8.780;2024-03-02T09:01:50;99407.78;;;14.24;60.37
77321;BME280;66382;52.252;8.780;2024-03-02T09:04:16;99411.69;;;14.57;61.71
77321;BME280;66382;52.252;8.780;2024-03-02T09:06:41;99408.81;;;14.92;61.85
77321;BME280;66382;52.252;8.780;2024-03-02T09:09:07;99415.84;;;15.27;59.39
77321;BME280;66382;52.252;8.780;2024-03-02T09:11:33;99413.38;;;15.59;58.28
77321;BME280;66382;52.252;8.780;2024-03-02T09:13:59;99424.69;;;15.73;59.49
77321;BME280;66382;52.252;8.780;2024-03-02T09:16:24;99410.81;;;15.86;57.89
77321;BME280;66382;52.252;8.780;2024-03-02T09:18:50;99401.97;;;16.13;59.94
77321;BME280;66382;52.252;8.780;2024-03-02T09:21:15;99407.22;;;16.47;60.26
77321;BME280;66382;52.252;8.780;2024-03-02T09:23:41;99415.59;;;16.72;58.50
77321;BME280;66382;52.252;8.780;2024-03-02T09:26:06;99414.19;;;16.92;58.30
77321;BME280;66382;52.252;8.780;2024-03-02T09:28:33;99403.72;;;17.06;58.38
77321;BME280;66382;52.252;8.780;2024-03-02T09:31:00;99401.38;;;17.14;57.48
77321;BME280;66382;52.252;8.780;2024-03-02T09:33:26;99406.84;;;17.19;57.45
77321;BME280;66382;52.252;8.780;2024-03-02T09:35:51;99405.50;;;17.22;57.16
77321;BME280;66382;52.252;8.780;2024-03-02T09:38:17;99409.84;;;17.23;56.43
77321;BME280;66382;52.252;8.780;2024-03-02T09:40:42;99408.81;;;17.29;56.85
77321;BME280;66382;52.252;8.780;2024-03-02T09:43:08;99408.53;;;17.31;55.59
77321;BME280;66382;52.252;8.780;2024-03-02T09:45:36;99402.34;;;17.35;56.26
77321;BME280;66382;52.252;8.780;2024-03-02T09:48:02;99409.16;;;17.43;56.65
77321;BME280;66382;52.252;8.780;2024-03-02T09:50:27;99398.59;;;17.41;55.05
77321;BME280;66382;52.252;8.780;2024-03-02T09:52:53;99397.28;;;17.44;56.60
77321;BME280;66382;52.252;8.780;2024-03-02T09:55:18;99399.38;;;17.37;53.08
77321;BME280;66382;52.252;8.780;2024-03-02T09:57:44;99393.69;;;17.33;55.60
77321;BME280;66382;52.252;8.780;2024-03-02T10:00:11;99396.63;;;17.32;55.87
77321;BME280;66382;52.252;8.780;2024-03-02T10:02:38;99387.50;;;17.43;55.98
77321;BME280;66382;52.252;8.780;2024-03-02T10:05:04;99399.53;;;17.62;56.22
77321;BME280;66382;52.252;8.780;2024-03-02T10:07:29;99383.56;;;17.61;51.71
77321;BME280;66382;52.252;8.780;2024-03-02T10:09:55;99387.59;;;17.53;54.17
77321;BME280;66382;52.252;8.780;2024-03-02T10:12:20;99392.16;;;17.53;54.84
77321;BME280;66382;52.252;8.780;2024-03-02T10:14:45;99399.50;;;17.57;54.52
77321;BME280;66382;52.252;8.780;2024-03-02T10:17:12;99400.31;;;17.58;55.00
77321;BME280;66382;52.252;8.780;2024-03-02T10:19:39;99399.44;;;17.84;53.87
77321;BME280;66382;52.252;8.780;2024-03-02T10:22:06;99399.50;;;18.05;55.64
77321;BME280;66382;52.252;8.780;2024-03-02T10:24:36;99396.03;;;18.20;56.36
77321;BME280;66382;52.252;8.780;2024-03-02T10:27:02;99401.00;;;18.33;54.87
77321;BME280;66382;52.252;8.780;2024-03-02T10:29:31;99403.75;;;18.54;55.32
77321;BME280;66382;52.252;8.780;2024-03-02T10:31:57;99401.59;;;18.61;55.55
77321;BME280;66382;52.252;8.780;2024-03-02T10:34:22;99401.84;;;18.59;54.43
77321;BME280;66382;52.252;8.780;2024-03-02T10:36:49;99407.59;;;18.68;55.84
77321;BME280;66382;52.252;8.780;2024-03-02T10:39:15;99407.59;;;18.73;53.94
77321;BME280;66382;52.252;8.780;2024-03-02T10:41:41;99410.84;;;18.60;53.42
77321;BME280;66382;52.252;8.780;2024-03-02T10:44:07;99427.59;;;18.41;47.27
77321;BME280;66382;52.252;8.780;2024-03-02T10:46:35;99410.47;;;18.25;52.98
77321;BME280;66382;52.252;8.780;2024-03-02T10:49:01;99404.38;;;17.98;52.54
77321;BME280;66382;52.252;8.780;2024-03-02T10:51:28;99391.97;;;17.65;49.00
77321;BME280;66382;52.252;8.780;2024-03-02T10:53:55;99408.28;;;17.32;51.00
77321;BME280;66382;52.252;8.780;2024-03-02T10:56:24;99408.13;;;17.12;50.33
77321;BME280;66382;52.252;8.780;2024-03-02T10:58:55;99403.31;;;16.87;49.95
77321;BME280;66382;52.252;8.780;2024-03-02T11:01:26;99406.09;;;16.70;50.85
77321;BME280;66382;52.252;8.780;2024-03-02T11:03:54;99402.63;;;16.47;48.84
77321;BME280;66382;52.252;8.780;2024-03-02T11:06:22;99412.38;;;16.26;50.63
77321;BME280;66382;52.252;8.780;2024-03-02T11:08:49;99398.81;;;15.99;50.86
77321;BME280;66382;52.252;8.780;2024-03-02T11:11:22;99413.56;;;15.91;51.24
77321;BME280;66382;52.252;8.780;2024-03-02T11:13:53;99414.19;;;15.77;51.32
77321;BME280;66382;52.252;8.780;2024-03-02T11:16:31;99404.69;;;15.74;53.45
77321;BME280;66382;52.252;8.780;2024-03-02T11:18:57;99407.47;;;15.79;52.76
77321;BME280;66382;52.252;8.780;2024-03-02T11:21:23;99409.06;;;15.75;52.48
77321;BME280;66382;52.252;8.780;2024-03-02T11:23:48;99401.59;;;15.65;52.02
77321;BME280;66382;52.252;8.780;2024-03-02T11:26:18;99405.44;;;15.53;52.50
77321;BME280;66382;52.252;8.780;2024-03-02T11:28:44;99393.91;;;15.40;52.73
77321;BME280;66382;52.252;8.780;2024-03-02T11:31:10;99400.63;;;15.38;52.63
77321;BME280;66382;52.252;8.780;2024-03-02T11:33:35;99397.84;;;15.33;53.15
77321;BME280;66382;52.252;8.780;2024-03-02T11:36:01;99404.16;;;15.21;52.26
77321;BME280;66382;52.252;8.780;2024-03-02T11:38:29;99394.53;;;15.09;52.28
77321;BME280;66382;52.252;8.780;2024-03-02T11:40:55;99386.81;;;15.00;52.27
77321;BME280;66382;52.252;8.780;2024-03-02T11:43:22;99378.06;;;14.93;52.97
77321;BME280;66382;52.252;8.780;2024-03-02T11:45:47;99384.59;;;14.80;52.56
77321;BME280;66382;52.252;8.780;2024-03-02T11:48:14;99383.59;;;14.70;53.52
77321;BME280;66382;52.252;8.780;2024-03-02T11:50:41;99388.66;;;14.66;53.47
77321;BME280;66382;52.252;8.780;2024-03-02T11:53:09;99387.75;;;14.60;51.55
77321;BME280;66382;52.252;8.780;2024-03-02T11:55:35;99379.91;;;14.59;52.90
77321;BME280;66382;52.252;8.780;2024-03-02T11:58:01;99386.13;;;14.59;53.79
77321;BME280;66382;52.252;8.780;2024-03-02T12:00:28;99391.25;;;14.61;52.67
77321;BME280;66382;52.252;8.780;2024-03-02T12:03:00;99384.81;;;14.62;54.25
77321;BME280;66382;52.252;8.780;2024-03-02T12:05:26;99378.19;;;14.70;54.09
77321;BME280;66382;52.252;8.780;2024-03-02T12:07:56;99385.09;;;14.77;53.90
77321;BME280;66382;52.252;8.780;2024-03-02T12:10:21;99393.75;;;14.79;52.88
77321;BME280;66382;52.252;8.780;2024-03-02T12:12:47;99361.25;;;14.57;53.60
77321;BME280;66382;52.252;8.780;2024-03-02T12:15:12;99388.91;;;14.65;53.62
77321;BME280;66382;52.252;8.780;2024-03-02T12:17:39;99394.53;;;14.63;52.89
77321;BME280;66382;52.252;8.780;2024-03-02T12:20:05;99392.69;;;14.52;53.63
77321;BME280;66382;52.252;8.780;2024-03-02T12:22:30;99388.59;;;14.49;52.54
77321;BME280;66382;52.252;8.780;2024-03-02T12:24:56;99388.25;;;14.46;53.33
77321;BME280;66382;52.252;8.780;2024-03-02T12:27:21;99387.34;;;14.40;51.85
77321;BME280;66382;52.252;8.780;2024-03-02T12:29:47;99378.78;;;14.43;53.22
77321;BME280;66382;52.252;8.780;2024-03-02T12:32:14;99390.94;;;14.46;53.74
77321;BME280;66382;52.252;8.780;2024-03-02T12:34:41;99379.34;;;14.45;52.32
77321;BME280;66382;52.252;8.780;2024-03-02T12:37:06;99377.94;;;14.43;53.56
77321;BME280;66382;52.252;8.780;2024-03-02T12:39:32;99376.78;;;14.38;53.64
77321;BME280;66382;52.252;8.780;2024-03-02T12:41:57;99379.25;;;14.40;53.72
77321;BME280;66382;52.252;8.780;2024-03-02T12:44:23;99383.00;;;14.39;53.32
77321;BME280;66382;52.252;8.780;2024-03-02T12:46:48;99374.69;;;14.40;53.31
77321;BME280;66382;52.252;8.780;2024-03-02T12:49:15;99378.19;;;14.41;52.52
77321;BME280;66382;52.252;8.780;2024-03-02T12:51:42;99378.19;;;14.41;53.27
77321;BME280;66382;52.252;8.780;2024-03-02T12:54:08;99363.06;;;14.40;51.51
77321;BME280;66382;52.252;8.780;2024-03-02T12:56:35;99367.31;;;14.36;52.51
77321;BME280;66382;52.252;8.780;2024-03-02T12:59:01;99369.78;;;14.37;52.73
77321;BME280;66382;52.252;8.780;2024-03-02T13:01:26;99367.88;;;14.38;53.25
77321;BME280;66382;52.252;8.780;2024-03-02T13:03:52;99371.16;;;14.40;51.86
77321;BME280;66382;52.252;8.780;2024-03-02T13:06:18;99363.78;;;14.35;52.44